sensor_id;sensor_type;location;lat;lon;timestamp;P1;durP1;ratioP1;P2;durP2;ratioP2
31734;SDS011;18313;48.518;9.124;2023-02-10T00:01:32;45.83;;;22.45;;
31734;SDS011;18313;48.518;9.124;2023-02-10T00:03:59;48.67;;;23.20;;
31734;SDS011;18313;48.518;9.124;2023-02-10T00:06:27;52.78;;;23.65;;
31734;SDS011;18313;48.518;9.124;2023-02-10T00:08:56;52.78;;;23.88;;
31734;SDS011;18313;48.518;9.124;2023-02-10T00:11:24;50.22;;;23.67;;
31734;SDS011;18313;48.518;9.124;2023-02-10T00:14:11;48.85;;;22.98;;
31734;SDS011;18313;48.518;9.124;2023-02-10T00:16:39;53.60;;;24.90;;
31734;SDS011;18313;48.518;9.124;2023-02-10T00:19:06;52.15;;;24.65;;
31734;SDS011;18313;48.518;9.124;2023-02-10T00:21:34;54.63;;;24.27;;
31734;SDS011;18313;48.518;9.124;2023-02-10T00:24:02;54.38;;;24.08;;
31734;SDS011;18313;48.518;9.124;2023-02-10T00:26:30;52.50;;;24.73;;
31734;SDS011;18313;48.518;9.124;2023-02-10T00:28:57;50.50;;;23.55;;
31734;SDS011;18313;48.518;9.124;2023-02-10T00:31:24;47.30;;;22.48;;
31734;SDS011;18313;48.518;9.124;2023-02-10T00:33:51;49.30;;;23.48;;
31734;SDS011;18313;48.518;9.124;2023-02-10T00:36:18;47.00;;;21.75;;
31734;SDS011;18313;48.518;9.124;2023-02-10T00:38:45;50.42;;;23.05;;
31734;SDS011;18313;48.518;9.124;2023-02-10T00:41:13;51.38;;;24.00;;
31734;SDS011;18313;48.518;9.124;2023-02-10T00:43:42;44.78;;;23.05;;
31734;SDS011;18313;48.518;9.124;2023-02-10T00:46:15;51.55;;;23.35;;
31734;SDS011;18313;48.518;9.124;2023-02-10T00:48:44;45.20;;;22.40;;
31734;SDS011;18313;48.518;9.124;2023-02-10T00:51:12;52.03;;;22.23;;
31734;SDS011;18313;48.518;9.124;2023-02-10T00:53:40;45.60;;;23.20;;
31734;SDS011;18313;48.518;9.124;2023-02-10T00:56:08;52.25;;;23.92;;
31734;SDS011;18313;48.518;9.124;2023-02-10T00:58:36;48.88;;;21.50;;
31734;SDS011;18313;48.518;9.124;2023-02-10T01:01:04;48.47;;;21.63;;
31734;SDS011;18313;48.518;9.124;2023-02-10T01:03:32;47.88;;;22.45;;
31734;SDS011;18313;48.518;9.124;2023-02-10T01:06:00;46.80;;;22.60;;
31734;SDS011;18313;48.518;9.124;2023-02-10T01:08:27;49.92;;;21.42;;
31734;SDS011;18313;48.518;9.124;2023-02-10T01:11:02;44.15;;;21.75;;
31734;SDS011;18313;48.518;9.124;2023-02-10T01:13:31;41.38;;;19.92;;
31734;SDS011;18313;48.518;9.124;2023-02-10T01:16:05;44.28;;;20.80;;
31734;SDS011;18313;48.518;9.124;2023-02-10T01:21:08;42.13;;;20.33;;
31734;SDS011;18313;48.518;9.124;2023-02-10T01:23:46;41.85;;;19.67;;
31734;SDS011;18313;48.518;9.124;2023-02-10T01:26:13;42.90;;;20.90;;
31734;SDS011;18313;48.518;9.124;2023-02-10T01:28:41;43.55;;;21.45;;
31734;SDS011;18313;48.518;9.124;2023-02-10T01:31:13;44.95;;;20.67;;
31734;SDS011;18313;48.518;9.124;2023-02-10T01:33:42;42.55;;;20.77;;
31734;SDS011;18313;48.518;9.124;2023-02-10T01:36:10;39.65;;;19.90;;
31734;SDS011;18313;48.518;9.124;2023-02-10T01:38:39;40.70;;;20.08;;
31734;SDS011;18313;48.518;9.124;2023-02-10T01:41:06;40.47;;;19.58;;
31734;SDS011;18313;48.518;9.124;2023-02-10T01:43:52;47.17;;;21.58;;
31734;SDS011;18313;48.518;9.124;2023-02-10T01:46:32;46.00;;;21.05;;
31734;SDS011;18313;48.518;9.124;2023-02-10T01:49:01;49.95;;;21.80;;
31734;SDS011;18313;48.518;9.124;2023-02-10T01:51:55;41.40;;;20.10;;
31734;SDS011;18313;48.518;9.124;2023-02-10T01:54:30;38.22;;;19.17;;
31734;SDS011;18313;48.518;9.124;2023-02-10T01:59:31;40.72;;;19.67;;
31734;SDS011;18313;48.518;9.124;2023-02-10T02:02:00;45.28;;;19.42;;
31734;SDS011;18313;48.518;9.124;2023-02-10T02:04:37;43.78;;;20.77;;
31734;SDS011;18313;48.518;9.124;2023-02-10T02:07:19;43.70;;;20.67;;
31734;SDS011;18313;48.518;9.124;2023-02-10T02:09:49;37.92;;;19.33;;
31734;SDS011;18313;48.518;9.124;2023-02-10T02:12:24;51.10;;;22.08;;
31734;SDS011;18313;48.518;9.124;2023-02-10T02:15:06;45.28;;;21.85;;
31734;SDS011;18313;48.518;9.124;2023-02-10T02:17:49;46.03;;;21.15;;
31734;SDS011;18313;48.518;9.124;2023-02-10T02:34:41;49.72;;;21.70;;
31734;SDS011;18313;48.518;9.124;2023-02-10T02:37:52;42.60;;;19.73;;
31734;SDS011;18313;48.518;9.124;2023-02-10T02:40:14;45.65;;;22.02;;
31734;SDS011;18313;48.518;9.124;2023-02-10T02:42:42;45.63;;;21.42;;
31734;SDS011;18313;48.518;9.124;2023-02-10T02:45:11;45.20;;;21.17;;
31734;SDS011;18313;48.518;9.124;2023-02-10T02:53:18;46.85;;;21.27;;
31734;SDS011;18313;48.518;9.124;2023-02-10T03:01:09;44.08;;;21.42;;
31734;SDS011;18313;48.518;9.124;2023-02-10T03:06:08;44.47;;;20.00;;
31734;SDS011;18313;48.518;9.124;2023-02-10T03:08:36;47.03;;;21.17;;
31734;SDS011;18313;48.518;9.124;2023-02-10T03:11:06;43.88;;;21.75;;
31734;SDS011;18313;48.518;9.124;2023-02-10T03:13:33;45.60;;;22.45;;
31734;SDS011;18313;48.518;9.124;2023-02-10T03:16:00;43.60;;;22.05;;
31734;SDS011;18313;48.518;9.124;2023-02-10T03:18:29;42.47;;;21.23;;
31734;SDS011;18313;48.518;9.124;2023-02-10T03:20:56;45.28;;;21.17;;
31734;SDS011;18313;48.518;9.124;2023-02-10T03:23:23;43.90;;;22.33;;
31734;SDS011;18313;48.518;9.124;2023-02-10T03:25:50;43.83;;;22.23;;
31734;SDS011;18313;48.518;9.124;2023-02-10T03:28:17;51.58;;;22.73;;
31734;SDS011;18313;48.518;9.124;2023-02-10T03:30:45;45.72;;;22.30;;
31734;SDS011;18313;48.518;9.124;2023-02-10T03:33:15;46.85;;;21.92;;
31734;SDS011;18313;48.518;9.124;2023-02-10T03:35:43;47.25;;;23.42;;
31734;SDS011;18313;48.518;9.124;2023-02-10T03:38:12;46.78;;;21.58;;
31734;SDS011;18313;48.518;9.124;2023-02-10T03:40:40;47.67;;;23.25;;
31734;SDS011;18313;48.518;9.124;2023-02-10T03:43:07;54.20;;;23.55;;
31734;SDS011;18313;48.518;9.124;2023-02-10T03:45:35;49.92;;;22.60;;
31734;SDS011;18313;48.518;9.124;2023-02-10T03:48:04;49.38;;;23.30;;
31734;SDS011;18313;48.518;9.124;2023-02-10T03:50:31;47.97;;;23.77;;
31734;SDS011;18313;48.518;9.124;2023-02-10T03:52:58;56.20;;;23.52;;
31734;SDS011;18313;48.518;9.124;2023-02-10T03:55:25;48.08;;;22.80;;
31734;SDS011;18313;48.518;9.124;2023-02-10T03:57:52;52.13;;;23.20;;
31734;SDS011;18313;48.518;9.124;2023-02-10T04:00:19;48.80;;;23.02;;
31734;SDS011;18313;48.518;9.124;2023-02-10T04:02:47;47.10;;;22.25;;
31734;SDS011;18313;48.518;9.124;2023-02-10T04:05:14;43.97;;;21.85;;
31734;SDS011;18313;48.518;9.124;2023-02-10T04:07:41;45.25;;;21.42;;
31734;SDS011;18313;48.518;9.124;2023-02-10T04:10:08;51.88;;;23.63;;
31734;SDS011;18313;48.518;9.124;2023-02-10T04:12:35;46.50;;;22.77;;
31734;SDS011;18313;48.518;9.124;2023-02-10T04:15:03;52.15;;;23.45;;
31734;SDS011;18313;48.518;9.124;2023-02-10T04:17:31;51.33;;;23.50;;
31734;SDS011;18313;48.518;9.124;2023-02-10T04:19:58;47.13;;;23.15;;
31734;SDS011;18313;48.518;9.124;2023-02-10T04:22:25;49.65;;;23.05;;
31734;SDS011;18313;48.518;9.124;2023-02-10T04:24:52;48.90;;;22.30;;
31734;SDS011;18313;48.518;9.124;2023-02-10T04:27:19;43.42;;;21.27;;
31734;SDS011;18313;48.518;9.124;2023-02-10T04:29:47;41.60;;;20.67;;
31734;SDS011;18313;48.518;9.124;2023-02-10T04:32:14;44.78;;;21.30;;
31734;SDS011;18313;48.518;9.124;2023-02-10T04:34:41;48.90;;;23.63;;
31734;SDS011;18313;48.518;9.124;2023-02-10T04:37:08;44.67;;;22.25;;
31734;SDS011;18313;48.518;9.124;2023-02-10T04:39:35;46.92;;;23.00;;
31734;SDS011;18313;48.518;9.124;2023-02-10T04:42:02;48.25;;;22.58;;
31734;SDS011;18313;48.518;9.124;2023-02-10T04:44:29;48.53;;;22.75;;
31734;SDS011;18313;48.518;9.124;2023-02-10T04:46:56;50.10;;;22.13;;
31734;SDS011;18313;48.518;9.124;2023-02-10T04:49:23;45.60;;;22.30;;
31734;SDS011;18313;48.518;9.124;2023-02-10T04:51:50;44.30;;;21.15;;
31734;SDS011;18313;48.518;9.124;2023-02-10T04:54:17;43.80;;;21.52;;
31734;SDS011;18313;48.518;9.124;2023-02-10T04:56:45;42.67;;;20.60;;
31734;SDS011;18313;48.518;9.124;2023-02-10T04:59:12;40.83;;;20.52;;
31734;SDS011;18313;48.518;9.124;2023-02-10T05:01:39;51.67;;;28.13;;
31734;SDS011;18313;48.518;9.124;2023-02-10T05:04:06;49.53;;;24.42;;
31734;SDS011;18313;48.518;9.124;2023-02-10T05:06:34;48.08;;;22.38;;
31734;SDS011;18313;48.518;9.124;2023-02-10T05:09:01;54.00;;;24.05;;
31734;SDS011;18313;48.518;9.124;2023-02-10T05:11:28;46.83;;;23.92;;
31734;SDS011;18313;48.518;9.124;2023-02-10T05:13:55;53.35;;;24.98;;
31734;SDS011;18313;48.518;9.124;2023-02-10T05:16:22;48.55;;;22.85;;
31734;SDS011;18313;48.518;9.124;2023-02-10T05:18:49;55.92;;;25.00;;
31734;SDS011;18313;48.518;9.124;2023-02-10T05:21:16;49.60;;;23.15;;
31734;SDS011;18313;48.518;9.124;2023-02-10T05:23:43;52.72;;;24.48;;
31734;SDS011;18313;48.518;9.124;2023-02-10T05:26:10;49.30;;;24.08;;
31734;SDS011;18313;48.518;9.124;2023-02-10T05:28:37;48.17;;;23.40;;
31734;SDS011;18313;48.518;9.124;2023-02-10T05:31:05;58.45;;;25.10;;
31734;SDS011;18313;48.518;9.124;2023-02-10T05:33:33;51.55;;;23.10;;
31734;SDS011;18313;48.518;9.124;2023-02-10T05:36:01;46.03;;;21.98;;
31734;SDS011;18313;48.518;9.124;2023-02-10T05:38:28;52.63;;;24.10;;
31734;SDS011;18313;48.518;9.124;2023-02-10T05:40:55;50.80;;;24.08;;
31734;SDS011;18313;48.518;9.124;2023-02-10T05:43:22;44.15;;;21.10;;
31734;SDS011;18313;48.518;9.124;2023-02-10T05:45:49;43.20;;;19.92;;
31734;SDS011;18313;48.518;9.124;2023-02-10T05:48:17;45.75;;;22.15;;
31734;SDS011;18313;48.518;9.124;2023-02-10T05:50:44;44.72;;;20.88;;
31734;SDS011;18313;48.518;9.124;2023-02-10T05:53:15;44.05;;;21.10;;
31734;SDS011;18313;48.518;9.124;2023-02-10T05:55:42;48.92;;;23.45;;
31734;SDS011;18313;48.518;9.124;2023-02-10T05:58:12;56.42;;;24.95;;
31734;SDS011;18313;48.518;9.124;2023-02-10T06:00:39;62.42;;;25.35;;
31734;SDS011;18313;48.518;9.124;2023-02-10T06:03:06;53.13;;;25.88;;
31734;SDS011;18313;48.518;9.124;2023-02-10T06:05:35;55.75;;;24.85;;
31734;SDS011;18313;48.518;9.124;2023-02-10T06:08:02;51.28;;;23.95;;
31734;SDS011;18313;48.518;9.124;2023-02-10T06:10:29;48.50;;;23.75;;
31734;SDS011;18313;48.518;9.124;2023-02-10T06:12:56;51.90;;;24.08;;
31734;SDS011;18313;48.518;9.124;2023-02-10T06:15:23;55.40;;;25.45;;
31734;SDS011;18313;48.518;9.124;2023-02-10T06:17:49;53.50;;;24.80;;
31734;SDS011;18313;48.518;9.124;2023-02-10T06:20:17;56.25;;;24.75;;
31734;SDS011;18313;48.518;9.124;2023-02-10T06:22:44;48.90;;;23.67;;
31734;SDS011;18313;48.518;9.124;2023-02-10T06:25:11;53.38;;;24.58;;
31734;SDS011;18313;48.518;9.124;2023-02-10T06:27:38;49.30;;;23.58;;
31734;SDS011;18313;48.518;9.124;2023-02-10T06:30:05;50.45;;;23.77;;
31734;SDS011;18313;48.518;9.124;2023-02-10T06:32:33;49.50;;;23.25;;
31734;SDS011;18313;48.518;9.124;2023-02-10T06:35:00;43.30;;;21.52;;
31734;SDS011;18313;48.518;9.124;2023-02-10T06:37:27;44.25;;;21.77;;
31734;SDS011;18313;48.518;9.124;2023-02-10T06:39:54;43.35;;;21.42;;
31734;SDS011;18313;48.518;9.124;2023-02-10T06:42:21;46.85;;;23.88;;
31734;SDS011;18313;48.518;9.124;2023-02-10T06:44:48;49.35;;;22.65;;
31734;SDS011;18313;48.518;9.124;2023-02-10T06:47:15;45.40;;;21.98;;
31734;SDS011;18313;48.518;9.124;2023-02-10T06:49:42;45.85;;;21.58;;
31734;SDS011;18313;48.518;9.124;2023-02-10T06:52:10;46.83;;;21.63;;
31734;SDS011;18313;48.518;9.124;2023-02-10T06:54:43;48.40;;;23.30;;
31734;SDS011;18313;48.518;9.124;2023-02-10T06:57:11;47.33;;;21.92;;
31734;SDS011;18313;48.518;9.124;2023-02-10T06:59:41;49.58;;;22.85;;
31734;SDS011;18313;48.518;9.124;2023-02-10T07:02:10;48.38;;;22.15;;
31734;SDS011;18313;48.518;9.124;2023-02-10T07:04:38;47.63;;;22.60;;
31734;SDS011;18313;48.518;9.124;2023-02-10T07:07:06;46.58;;;22.02;;
31734;SDS011;18313;48.518;9.124;2023-02-10T07:09:33;48.92;;;22.42;;
31734;SDS011;18313;48.518;9.124;2023-02-10T07:12:00;46.40;;;22.17;;
31734;SDS011;18313;48.518;9.124;2023-02-10T07:14:27;46.72;;;23.17;;
31734;SDS011;18313;48.518;9.124;2023-02-10T07:16:54;51.80;;;22.75;;
31734;SDS011;18313;48.518;9.124;2023-02-10T07:19:21;50.50;;;22.42;;
31734;SDS011;18313;48.518;9.124;2023-02-10T07:21:48;48.38;;;21.77;;
31734;SDS011;18313;48.518;9.124;2023-02-10T07:24:16;44.55;;;22.15;;
31734;SDS011;18313;48.518;9.124;2023-02-10T07:26:43;44.92;;;22.02;;
31734;SDS011;18313;48.518;9.124;2023-02-10T07:29:10;45.10;;;22.02;;
31734;SDS011;18313;48.518;9.124;2023-02-10T07:31:38;45.78;;;22.20;;
31734;SDS011;18313;48.518;9.124;2023-02-10T07:34:05;46.40;;;21.85;;
31734;SDS011;18313;48.518;9.124;2023-02-10T07:36:32;51.85;;;24.60;;
31734;SDS011;18313;48.518;9.124;2023-02-10T07:38:59;47.92;;;22.70;;
31734;SDS011;18313;48.518;9.124;2023-02-10T07:41:26;49.60;;;23.50;;
31734;SDS011;18313;48.518;9.124;2023-02-10T07:43:53;83.25;;;36.42;;
31734;SDS011;18313;48.518;9.124;2023-02-10T07:46:20;64.13;;;30.63;;
31734;SDS011;18313;48.518;9.124;2023-02-10T07:48:47;61.60;;;29.85;;
31734;SDS011;18313;48.518;9.124;2023-02-10T07:51:14;73.18;;;30.05;;
31734;SDS011;18313;48.518;9.124;2023-02-10T07:53:42;66.53;;;28.33;;
31734;SDS011;18313;48.518;9.124;2023-02-10T07:56:09;74.85;;;32.58;;
31734;SDS011;18313;48.518;9.124;2023-02-10T07:58:36;75.40;;;34.50;;
31734;SDS011;18313;48.518;9.124;2023-02-10T08:01:07;66.70;;;30.35;;
31734;SDS011;18313;48.518;9.124;2023-02-10T08:03:36;59.60;;;27.92;;
31734;SDS011;18313;48.518;9.124;2023-02-10T08:06:03;53.83;;;24.70;;
31734;SDS011;18313;48.518;9.124;2023-02-10T08:08:31;51.97;;;23.90;;
31734;SDS011;18313;48.518;9.124;2023-02-10T08:10:58;48.35;;;24.58;;
31734;SDS011;18313;48.518;9.124;2023-02-10T08:13:25;53.83;;;25.13;;
31734;SDS011;18313;48.518;9.124;2023-02-10T08:15:53;49.80;;;25.48;;
31734;SDS011;18313;48.518;9.124;2023-02-10T08:18:21;56.88;;;24.90;;
31734;SDS011;18313;48.518;9.124;2023-02-10T08:20:48;48.63;;;24.17;;
31734;SDS011;18313;48.518;9.124;2023-02-10T08:23:16;73.57;;;31.02;;
31734;SDS011;18313;48.518;9.124;2023-02-10T08:25:44;53.03;;;25.15;;
31734;SDS011;18313;48.518;9.124;2023-02-10T08:28:11;54.30;;;26.08;;
31734;SDS011;18313;48.518;9.124;2023-02-10T08:30:38;47.65;;;25.05;;
31734;SDS011;18313;48.518;9.124;2023-02-10T08:33:05;57.13;;;26.73;;
31734;SDS011;18313;48.518;9.124;2023-02-10T08:35:35;51.30;;;25.10;;
31734;SDS011;18313;48.518;9.124;2023-02-10T08:38:03;47.85;;;23.10;;
31734;SDS011;18313;48.518;9.124;2023-02-10T08:40:31;49.17;;;23.33;;
31734;SDS011;18313;48.518;9.124;2023-02-10T08:43:00;50.05;;;24.50;;
31734;SDS011;18313;48.518;9.124;2023-02-10T08:45:27;44.95;;;22.85;;
31734;SDS011;18313;48.518;9.124;2023-02-10T08:47:55;47.55;;;23.17;;
31734;SDS011;18313;48.518;9.124;2023-02-10T08:50:22;42.72;;;22.63;;
31734;SDS011;18313;48.518;9.124;2023-02-10T08:52:49;43.47;;;23.00;;
31734;SDS011;18313;48.518;9.124;2023-02-10T08:55:16;46.33;;;22.95;;
31734;SDS011;18313;48.518;9.124;2023-02-10T08:57:44;43.35;;;23.77;;
31734;SDS011;18313;48.518;9.124;2023-02-10T09:00:11;47.20;;;23.65;;
31734;SDS011;18313;48.518;9.124;2023-02-10T09:02:39;49.60;;;25.33;;
31734;SDS011;18313;48.518;9.124;2023-02-10T09:05:06;44.72;;;23.52;;
31734;SDS011;18313;48.518;9.124;2023-02-10T09:07:36;41.03;;;21.15;;
31734;SDS011;18313;48.518;9.124;2023-02-10T09:10:03;38.80;;;20.63;;
31734;SDS011;18313;48.518;9.124;2023-02-10T09:12:31;45.58;;;22.83;;
31734;SDS011;18313;48.518;9.124;2023-02-10T09:14:58;44.67;;;23.50;;
31734;SDS011;18313;48.518;9.124;2023-02-10T09:17:25;42.30;;;22.55;;
31734;SDS011;18313;48.518;9.124;2023-02-10T09:19:52;43.88;;;23.33;;
31734;SDS011;18313;48.518;9.124;2023-02-10T09:22:19;43.95;;;23.08;;
31734;SDS011;18313;48.518;9.124;2023-02-10T09:24:46;43.13;;;23.25;;
31734;SDS011;18313;48.518;9.124;2023-02-10T09:27:15;40.13;;;21.90;;
31734;SDS011;18313;48.518;9.124;2023-02-10T09:29:42;42.38;;;21.67;;
31734;SDS011;18313;48.518;9.124;2023-02-10T09:32:09;39.65;;;20.92;;
31734;SDS011;18313;48.518;9.124;2023-02-10T09:34:36;37.67;;;20.65;;
31734;SDS011;18313;48.518;9.124;2023-02-10T09:37:06;38.90;;;21.30;;
31734;SDS011;18313;48.518;9.124;2023-02-10T09:39:33;37.63;;;21.27;;
31734;SDS011;18313;48.518;9.124;2023-02-10T09:44:38;46.30;;;21.30;;
31734;SDS011;18313;48.518;9.124;2023-02-10T09:50:33;39.35;;;21.15;;
31734;SDS011;18313;48.518;9.124;2023-02-10T09:53:12;40.72;;;19.98;;
31734;SDS011;18313;48.518;9.124;2023-02-10T09:55:50;38.58;;;21.45;;
31734;SDS011;18313;48.518;9.124;2023-02-10T09:58:29;42.13;;;21.38;;
31734;SDS011;18313;48.518;9.124;2023-02-10T10:01:14;40.72;;;21.75;;
31734;SDS011;18313;48.518;9.124;2023-02-10T10:03:52;41.30;;;21.05;;
31734;SDS011;18313;48.518;9.124;2023-02-10T10:06:32;39.97;;;21.65;;
31734;SDS011;18313;48.518;9.124;2023-02-10T10:14:15;43.55;;;21.95;;
31734;SDS011;18313;48.518;9.124;2023-02-10T10:17:05;38.15;;;20.25;;
31734;SDS011;18313;48.518;9.124;2023-02-10T10:19:47;38.45;;;21.48;;
31734;SDS011;18313;48.518;9.124;2023-02-10T10:28:34;39.00;;;21.10;;
31734;SDS011;18313;48.518;9.124;2023-02-10T10:31:12;37.45;;;21.77;;
31734;SDS011;18313;48.518;9.124;2023-02-10T10:33:49;40.50;;;21.83;;
31734;SDS011;18313;48.518;9.124;2023-02-10T10:36:21;38.83;;;21.42;;
31734;SDS011;18313;48.518;9.124;2023-02-10T10:38:52;38.25;;;20.75;;
31734;SDS011;18313;48.518;9.124;2023-02-10T10:41:28;38.20;;;20.95;;
31734;SDS011;18313;48.518;9.124;2023-02-10T10:43:58;38.20;;;21.33;;
31734;SDS011;18313;48.518;9.124;2023-02-10T10:49:14;41.85;;;21.58;;
31734;SDS011;18313;48.518;9.124;2023-02-10T10:51:42;39.55;;;21.30;;
31734;SDS011;18313;48.518;9.124;2023-02-10T10:54:13;38.40;;;21.25;;
31734;SDS011;18313;48.518;9.124;2023-02-10T10:59:16;34.88;;;20.45;;
31734;SDS011;18313;48.518;9.124;2023-02-10T11:01:57;37.88;;;22.10;;
31734;SDS011;18313;48.518;9.124;2023-02-10T11:04:25;38.67;;;21.17;;
31734;SDS011;18313;48.518;9.124;2023-02-10T11:06:55;38.13;;;21.23;;
31734;SDS011;18313;48.518;9.124;2023-02-10T11:09:28;42.75;;;21.83;;
31734;SDS011;18313;48.518;9.124;2023-02-10T11:14:37;38.97;;;21.95;;
31734;SDS011;18313;48.518;9.124;2023-02-10T11:19:52;37.47;;;20.20;;
31734;SDS011;18313;48.518;9.124;2023-02-10T11:22:24;36.63;;;21.60;;
31734;SDS011;18313;48.518;9.124;2023-02-10T11:24:56;38.13;;;21.38;;
31734;SDS011;18313;48.518;9.124;2023-02-10T11:27:25;35.50;;;20.42;;
31734;SDS011;18313;48.518;9.124;2023-02-10T11:29:54;36.30;;;20.48;;
31734;SDS011;18313;48.518;9.124;2023-02-10T11:32:25;40.47;;;22.52;;
31734;SDS011;18313;48.518;9.124;2023-02-10T11:35:02;38.70;;;21.23;;
31734;SDS011;18313;48.518;9.124;2023-02-10T11:37:36;42.55;;;23.40;;
31734;SDS011;18313;48.518;9.124;2023-02-10T11:40:21;39.28;;;20.67;;
31734;SDS011;18313;48.518;9.124;2023-02-10T11:42:54;38.78;;;20.17;;
31734;SDS011;18313;48.518;9.124;2023-02-10T11:45:27;36.45;;;19.88;;
31734;SDS011;18313;48.518;9.124;2023-02-10T11:48:00;37.55;;;19.83;;
31734;SDS011;18313;48.518;9.124;2023-02-10T11:50:30;37.33;;;18.63;;
31734;SDS011;18313;48.518;9.124;2023-02-10T11:53:00;28.77;;;17.25;;
31734;SDS011;18313;48.518;9.124;2023-02-10T11:55:31;35.22;;;18.73;;
31734;SDS011;18313;48.518;9.124;2023-02-10T12:01:20;31.08;;;16.98;;
31734;SDS011;18313;48.518;9.124;2023-02-10T12:24:32;31.48;;;18.05;;
31734;SDS011;18313;48.518;9.124;2023-02-10T12:27:39;33.72;;;18.05;;
31734;SDS011;18313;48.518;9.124;2023-02-10T12:30:17;30.30;;;16.98;;
31734;SDS011;18313;48.518;9.124;2023-02-10T12:33:03;28.95;;;16.80;;
31734;SDS011;18313;48.518;9.124;2023-02-10T12:36:16;24.88;;;14.07;;
31734;SDS011;18313;48.518;9.124;2023-02-10T12:39:08;22.80;;;14.05;;
31734;SDS011;18313;48.518;9.124;2023-02-10T12:41:46;27.42;;;15.38;;
31734;SDS011;18313;48.518;9.124;2023-02-10T12:47:43;23.85;;;14.77;;
31734;SDS011;18313;48.518;9.124;2023-02-10T12:53:08;24.75;;;13.40;;
31734;SDS011;18313;48.518;9.124;2023-02-10T12:55:46;27.00;;;15.50;;
31734;SDS011;18313;48.518;9.124;2023-02-10T13:04:27;22.95;;;14.05;;
31734;SDS011;18313;48.518;9.124;2023-02-10T13:07:12;20.83;;;12.57;;
31734;SDS011;18313;48.518;9.124;2023-02-10T13:13:07;18.50;;;11.63;;
31734;SDS011;18313;48.518;9.124;2023-02-10T13:15:41;18.85;;;11.27;;
31734;SDS011;18313;48.518;9.124;2023-02-10T13:18:31;22.08;;;13.15;;
31734;SDS011;18313;48.518;9.124;2023-02-10T13:21:05;27.38;;;14.82;;
31734;SDS011;18313;48.518;9.124;2023-02-10T13:23:40;21.88;;;13.35;;
31734;SDS011;18313;48.518;9.124;2023-02-10T13:29:20;23.80;;;13.85;;
31734;SDS011;18313;48.518;9.124;2023-02-10T13:34:36;24.27;;;14.60;;
31734;SDS011;18313;48.518;9.124;2023-02-10T13:40:02;22.45;;;13.35;;
31734;SDS011;18313;48.518;9.124;2023-02-10T13:42:46;25.52;;;13.77;;
31734;SDS011;18313;48.518;9.124;2023-02-10T13:45:18;23.95;;;14.63;;
31734;SDS011;18313;48.518;9.124;2023-02-10T13:47:49;24.25;;;14.73;;
31734;SDS011;18313;48.518;9.124;2023-02-10T13:50:31;22.35;;;13.65;;
31734;SDS011;18313;48.518;9.124;2023-02-10T13:56:01;22.38;;;13.57;;
31734;SDS011;18313;48.518;9.124;2023-02-10T13:58:46;24.35;;;14.68;;
31734;SDS011;18313;48.518;9.124;2023-02-10T14:06:45;24.40;;;14.43;;
31734;SDS011;18313;48.518;9.124;2023-02-10T14:12:00;24.25;;;14.32;;
31734;SDS011;18313;48.518;9.124;2023-02-10T14:17:06;21.52;;;13.77;;
31734;SDS011;18313;48.518;9.124;2023-02-10T14:19:48;24.58;;;13.98;;
31734;SDS011;18313;48.518;9.124;2023-02-10T14:22:51;23.25;;;14.45;;
31734;SDS011;18313;48.518;9.124;2023-02-10T14:25:20;22.08;;;14.05;;
31734;SDS011;18313;48.518;9.124;2023-02-10T14:27:58;26.92;;;14.82;;
31734;SDS011;18313;48.518;9.124;2023-02-10T14:30:39;22.85;;;13.77;;
31734;SDS011;18313;48.518;9.124;2023-02-10T14:36:13;22.90;;;12.95;;
31734;SDS011;18313;48.518;9.124;2023-02-10T14:38:43;25.40;;;13.95;;
31734;SDS011;18313;48.518;9.124;2023-02-10T14:41:16;23.30;;;13.65;;
31734;SDS011;18313;48.518;9.124;2023-02-10T14:43:47;24.27;;;14.57;;
31734;SDS011;18313;48.518;9.124;2023-02-10T14:46:23;22.50;;;13.65;;
31734;SDS011;18313;48.518;9.124;2023-02-10T14:51:30;24.45;;;14.35;;
31734;SDS011;18313;48.518;9.124;2023-02-10T14:54:06;28.75;;;15.65;;
31734;SDS011;18313;48.518;9.124;2023-02-10T14:59:42;25.45;;;14.68;;
31734;SDS011;18313;48.518;9.124;2023-02-10T15:02:16;26.00;;;15.27;;
31734;SDS011;18313;48.518;9.124;2023-02-10T15:04:46;25.38;;;14.55;;
31734;SDS011;18313;48.518;9.124;2023-02-10T15:07:22;28.40;;;15.80;;
31734;SDS011;18313;48.518;9.124;2023-02-10T15:10:13;27.55;;;15.68;;
31734;SDS011;18313;48.518;9.124;2023-02-10T15:12:59;28.33;;;14.77;;
31734;SDS011;18313;48.518;9.124;2023-02-10T15:15:40;27.35;;;15.57;;
31734;SDS011;18313;48.518;9.124;2023-02-10T15:18:15;27.58;;;15.23;;
31734;SDS011;18313;48.518;9.124;2023-02-10T15:20:55;28.27;;;16.25;;
31734;SDS011;18313;48.518;9.124;2023-02-10T15:23:24;26.80;;;14.95;;
31734;SDS011;18313;48.518;9.124;2023-02-10T15:28:28;27.27;;;14.75;;
31734;SDS011;18313;48.518;9.124;2023-02-10T15:31:01;31.40;;;16.92;;
31734;SDS011;18313;48.518;9.124;2023-02-10T15:33:35;30.13;;;16.88;;
31734;SDS011;18313;48.518;9.124;2023-02-10T15:36:17;38.55;;;18.63;;
31734;SDS011;18313;48.518;9.124;2023-02-10T15:41:34;74.63;;;37.90;;
31734;SDS011;18313;48.518;9.124;2023-02-10T15:44:02;37.88;;;19.42;;
31734;SDS011;18313;48.518;9.124;2023-02-10T15:46:51;32.75;;;16.92;;
31734;SDS011;18313;48.518;9.124;2023-02-10T15:49:20;32.70;;;17.63;;
31734;SDS011;18313;48.518;9.124;2023-02-10T15:51:49;32.22;;;17.23;;
31734;SDS011;18313;48.518;9.124;2023-02-10T15:54:20;33.30;;;17.83;;
31734;SDS011;18313;48.518;9.124;2023-02-10T15:57:32;34.60;;;18.88;;
31734;SDS011;18313;48.518;9.124;2023-02-10T15:59:40;34.08;;;18.17;;
31734;SDS011;18313;48.518;9.124;2023-02-10T16:02:10;37.17;;;21.50;;
31734;SDS011;18313;48.518;9.124;2023-02-10T16:04:39;34.13;;;19.17;;
31734;SDS011;18313;48.518;9.124;2023-02-10T16:07:09;39.75;;;22.75;;
31734;SDS011;18313;48.518;9.124;2023-02-10T16:09:50;40.85;;;21.75;;
31734;SDS011;18313;48.518;9.124;2023-02-10T16:12:18;34.85;;;18.63;;
31734;SDS011;18313;48.518;9.124;2023-02-10T16:14:46;39.00;;;23.05;;
31734;SDS011;18313;48.518;9.124;2023-02-10T16:17:19;33.97;;;19.27;;
31734;SDS011;18313;48.518;9.124;2023-02-10T16:19:50;33.00;;;17.25;;
31734;SDS011;18313;48.518;9.124;2023-02-10T16:22:17;35.67;;;17.23;;
31734;SDS011;18313;48.518;9.124;2023-02-10T16:24:44;36.13;;;19.30;;
31734;SDS011;18313;48.518;9.124;2023-02-10T16:27:11;36.28;;;18.90;;
31734;SDS011;18313;48.518;9.124;2023-02-10T16:29:39;39.13;;;18.67;;
31734;SDS011;18313;48.518;9.124;2023-02-10T16:32:06;35.35;;;17.35;;
31734;SDS011;18313;48.518;9.124;2023-02-10T16:34:34;38.15;;;19.40;;
31734;SDS011;18313;48.518;9.124;2023-02-10T16:37:01;33.47;;;18.35;;
31734;SDS011;18313;48.518;9.124;2023-02-10T16:39:28;39.05;;;19.42;;
31734;SDS011;18313;48.518;9.124;2023-02-10T16:41:56;36.88;;;19.42;;
31734;SDS011;18313;48.518;9.124;2023-02-10T16:44:23;36.45;;;19.15;;
31734;SDS011;18313;48.518;9.124;2023-02-10T16:46:50;36.38;;;19.45;;
31734;SDS011;18313;48.518;9.124;2023-02-10T16:49:18;40.22;;;21.17;;
31734;SDS011;18313;48.518;9.124;2023-02-10T16:51:45;42.13;;;20.25;;
31734;SDS011;18313;48.518;9.124;2023-02-10T16:54:13;37.40;;;20.98;;
31734;SDS011;18313;48.518;9.124;2023-02-10T16:56:41;40.15;;;21.83;;
31734;SDS011;18313;48.518;9.124;2023-02-10T16:59:14;35.83;;;20.23;;